Terminal Aerodrome Forecast
Issued by NWS Sterling, VA

Current Version | Previous Version | Text Only | Print | Product List | Glossary Off
Versions: 1 2 3 4 5 6 7 8 9 10 11 12 13 14 15 16 17 18 19

918
FTUS41 KLWX 192340
TAFMRB
TAF
KMRB 192340Z 2000/2024 VRB03KT P6SM SCT100 BKN250
     FM200600 19004KT 4SM BR BKN250 WS020/23035KT
     FM201200 21005KT 5SM BR BKN250 WS020/25035KT
     FM201500 20007KT P6SM FEW140 SCT250=

USA.gov is the U.S. government's official web portal to all federal, state and local government web resources and services.